Terminal Aerodrome Forecast
Issued by NWS

Home | Current Version | Previous Version | Text Only | Print | Product List | Glossary On
Versions: 1 2 3 4 5 6 7 8 9 10 11 12 13 14 15 16
000
FTUS46 KSGX 291735
TAFONT
TAF
KONT 291735Z 2918/3024 25006KT P6SM SKC
     FM292100 25010G18KT P6SM SCT100
     FM292300 26013G23KT P6SM VCTS SCT100CB
     FM300200 25010KT P6SM VCTS SCT100CB
     FM300500 VRB06KT P6SM SCT100
     FM302100 25010G18KT P6SM SCT100=

USA.gov is the U.S. government's official web portal to all federal, state and local government web resources and services.